Time;durP1;ratioP1;P1;durP2;ratioP2;P2;SDS_P1;SDS_P2;PMS_P1;PMS_P2;Temp;Humidity;BMP_temperature;BMP_pressure;BME280_temperature;BME280_humidity;BME280_pressure;Samples;Min_cycle;Max_cycle;Signal;HPM_P1;HPM_P2
2021/08/19 00:01:55;;;;;;;7.57;6.75;;;;;;;;;;5096254;28;20120;-43
2021/08/19 00:04:21;;;;;;;7.18;6.47;;;;;;;;;;5114767;28;20210;-44
2021/08/19 00:06:47;;;;;;;7.30;6.60;;;;;;;;;;5096692;28;21015;-45
2021/08/19 00:09:13;;;;;;;8.65;6.15;;;;;;;;;;5114811;28;20172;-47
2021/08/19 00:11:39;;;;;;;7.28;6.45;;;;;;;;;;5114683;28;20028;-45
2021/08/19 00:14:05;;;;;;;7.25;6.40;;;;;;;;;;5114625;28;20372;-44
2021/08/19 00:16:31;;;;;;;6.97;5.82;;;;;;;;;;5114630;28;20460;-44
2021/08/19 00:18:57;;;;;;;8.45;6.40;;;;;;;;;;5114616;28;20077;-44
2021/08/19 00:21:23;;;;;;;6.35;5.75;;;;;;;;;;5114529;28;20036;-44
2021/08/19 00:23:49;;;;;;;6.65;6.00;;;;;;;;;;5114176;28;20480;-44
2021/08/19 00:26:15;;;;;;;7.93;5.40;;;;;;;;;;5114380;28;20030;-44
2021/08/19 00:28:41;;;;;;;6.03;5.32;;;;;;;;;;5114281;28;20027;-44
2021/08/19 00:31:07;;;;;;;6.20;5.60;;;;;;;;;;5114129;28;20024;-44
2021/08/19 00:33:33;;;;;;;9.73;5.90;;;;;;;;;;5114080;28;20023;-44
2021/08/19 00:35:59;;;;;;;5.75;5.25;;;;;;;;;;5114174;28;20027;-43
2021/08/19 00:38:25;;;;;;;9.57;6.40;;;;;;;;;;5114019;28;20047;-42
2021/08/19 00:40:51;;;;;;;7.57;5.90;;;;;;;;;;5114000;28;20085;-47
2021/08/19 00:43:19;;;;;;;7.97;5.97;;;;;;;;;;5114031;28;20020;-46
2021/08/19 00:45:45;;;;;;;6.10;5.07;;;;;;;;;;5113869;28;20055;-44
2021/08/19 00:48:11;;;;;;;6.57;5.90;;;;;;;;;;5095462;28;20054;-45
2021/08/19 00:50:38;;;;;;;6.50;5.85;;;;;;;;;;5113820;28;20027;-47
2021/08/19 00:53:04;;;;;;;6.57;5.97;;;;;;;;;;5113746;28;20027;-46
2021/08/19 00:55:31;;;;;;;6.93;6.22;;;;;;;;;;5113769;28;20491;-45
2021/08/19 00:57:57;;;;;;;7.35;6.30;;;;;;;;;;5113817;28;20028;-44
2021/08/19 01:00:24;;;;;;;7.40;6.10;;;;;;;;;;5113115;28;20036;-44
2021/08/19 01:02:54;;;;;;;8.45;6.32;;;;;;;;;;5113518;28;20023;-44
2021/08/19 01:05:22;;;;;;;7.30;6.55;;;;;;;;;;5113584;28;20023;-44
2021/08/19 01:07:48;;;;;;;8.55;5.68;;;;;;;;;;5094918;28;20024;-44
2021/08/19 01:10:14;;;;;;;6.68;6.07;;;;;;;;;;5113322;28;20030;-44
2021/08/19 01:12:41;;;;;;;8.52;6.03;;;;;;;;;;5113239;28;20015;-45
2021/08/19 01:15:08;;;;;;;7.53;5.65;;;;;;;;;;5113158;28;20024;-44
2021/08/19 01:17:34;;;;;;;6.63;5.93;;;;;;;;;;5113191;28;20051;-45
2021/08/19 01:20:00;;;;;;;7.97;6.95;;;;;;;;;;5113309;28;20058;-44
2021/08/19 01:22:26;;;;;;;9.07;6.40;;;;;;;;;;5113325;28;20153;-46
2021/08/19 01:24:52;;;;;;;6.15;5.40;;;;;;;;;;5113248;28;20039;-46
2021/08/19 01:27:19;;;;;;;7.15;6.07;;;;;;;;;;5113060;28;20027;-45
2021/08/19 01:29:46;;;;;;;6.82;6.10;;;;;;;;;;5113146;28;20031;-45
2021/08/19 01:32:12;;;;;;;6.50;5.63;;;;;;;;;;5113358;28;20059;-44
2021/08/19 01:34:39;;;;;;;7.30;5.55;;;;;;;;;;5113127;28;20058;-44
2021/08/19 01:37:06;;;;;;;7.50;5.85;;;;;;;;;;5113020;28;20027;-43
2021/08/19 01:39:32;;;;;;;5.75;5.22;;;;;;;;;;5113114;28;20487;-44
2021/08/19 01:41:58;;;;;;;6.60;5.85;;;;;;;;;;5113100;28;20023;-44
2021/08/19 01:44:25;;;;;;;6.53;5.80;;;;;;;;;;5112933;28;20015;-44
2021/08/19 01:46:51;;;;;;;5.85;5.25;;;;;;;;;;5112746;28;20027;-43
2021/08/19 01:49:17;;;;;;;6.75;5.28;;;;;;;;;;5112943;28;20050;-45
2021/08/19 01:51:43;;;;;;;7.25;5.30;;;;;;;;;;5112692;28;20115;-44
2021/08/19 01:54:10;;;;;;;8.40;5.38;;;;;;;;;;5093988;28;20028;-44
2021/08/19 01:56:36;;;;;;;5.43;4.93;;;;;;;;;;5112352;28;20470;-43
2021/08/19 01:59:02;;;;;;;5.93;4.90;;;;;;;;;;5112808;28;20032;-43
2021/08/19 02:01:28;;;;;;;5.65;5.10;;;;;;;;;;5112432;28;20064;-44
2021/08/19 02:03:55;;;;;;;6.75;4.65;;;;;;;;;;5094300;28;20520;-45
2021/08/19 02:06:21;;;;;;;5.47;4.95;;;;;;;;;;5112457;28;20034;-44
2021/08/19 02:08:47;;;;;;;6.40;4.82;;;;;;;;;;5112309;28;20023;-44
2021/08/19 02:11:14;;;;;;;5.35;4.53;;;;;;;;;;5112306;28;20507;-44
2021/08/19 02:13:40;;;;;;;4.90;4.35;;;;;;;;;;5107343;28;20403;-45
2021/08/19 02:16:06;;;;;;;6.80;5.72;;;;;;;;;;5086025;28;20063;-44
2021/08/19 02:18:32;;;;;;;6.45;4.85;;;;;;;;;;5089850;28;20381;-44
2021/08/19 02:20:58;;;;;;;5.35;4.82;;;;;;;;;;5089838;28;20043;-45
2021/08/19 02:23:24;;;;;;;9.23;5.45;;;;;;;;;;5098399;28;20039;-44
2021/08/19 02:25:50;;;;;;;7.55;5.70;;;;;;;;;;5110057;28;20047;-45
2021/08/19 02:28:16;;;;;;;5.45;4.53;;;;;;;;;;5110638;28;20027;-42
2021/08/19 02:30:43;;;;;;;7.25;5.05;;;;;;;;;;5110370;28;20031;-44
2021/08/19 02:33:09;;;;;;;7.10;4.80;;;;;;;;;;5091765;28;20411;-43
2021/08/19 02:35:35;;;;;;;6.88;5.53;;;;;;;;;;5110437;28;20029;-45
2021/08/19 02:38:04;;;;;;;7.57;5.45;;;;;;;;;;5110375;28;20019;-44
2021/08/19 02:40:30;;;;;;;5.65;4.88;;;;;;;;;;5110142;28;20046;-44
2021/08/19 02:42:56;;;;;;;7.47;4.88;;;;;;;;;;5110446;28;20807;-44
2021/08/19 02:45:23;;;;;;;5.68;5.18;;;;;;;;;;5110577;28;20357;-44
2021/08/19 02:47:49;;;;;;;6.47;5.22;;;;;;;;;;5110536;28;20570;-44
2021/08/19 02:50:16;;;;;;;6.18;5.28;;;;;;;;;;5106082;28;20024;-44
2021/08/19 02:52:42;;;;;;;6.38;5.68;;;;;;;;;;5110045;28;20522;-45
2021/08/19 02:55:09;;;;;;;5.75;4.97;;;;;;;;;;5110446;28;20543;-44
2021/08/19 02:57:35;;;;;;;5.93;5.32;;;;;;;;;;5110506;28;20784;-44
2021/08/19 03:00:01;;;;;;;6.07;5.30;;;;;;;;;;5110509;28;20024;-44
2021/08/19 03:02:27;;;;;;;6.95;5.40;;;;;;;;;;5109798;28;20015;-43
2021/08/19 03:04:53;;;;;;;8.68;6.25;;;;;;;;;;5109721;28;20027;-44
2021/08/19 03:07:19;;;;;;;7.78;6.15;;;;;;;;;;5091183;28;20098;-44
2021/08/19 03:09:45;;;;;;;6.57;5.57;;;;;;;;;;5110328;28;20372;-46
2021/08/19 03:12:11;;;;;;;8.95;6.65;;;;;;;;;;5110066;28;20547;-43
2021/08/19 03:14:37;;;;;;;8.07;6.60;;;;;;;;;;5110020;28;20016;-44
2021/08/19 03:17:04;;;;;;;6.43;5.82;;;;;;;;;;5091317;28;20024;-43
2021/08/19 03:19:30;;;;;;;7.93;6.32;;;;;;;;;;5110028;28;20026;-43
2021/08/19 03:21:56;;;;;;;8.00;5.90;;;;;;;;;;5109826;28;20023;-42
2021/08/19 03:24:22;;;;;;;8.35;6.13;;;;;;;;;;5111646;28;20050;-43
2021/08/19 03:26:48;;;;;;;7.85;5.80;;;;;;;;;;5112644;28;20153;-43
2021/08/19 03:29:14;;;;;;;7.03;6.13;;;;;;;;;;5113813;28;20024;-43
2021/08/19 03:31:40;;;;;;;6.82;6.13;;;;;;;;;;5095704;28;20019;-43
2021/08/19 03:34:06;;;;;;;6.63;5.93;;;;;;;;;;5113831;28;20053;-45
2021/08/19 03:36:33;;;;;;;8.80;6.50;;;;;;;;;;5113611;28;20804;-48
2021/08/19 03:38:59;;;;;;;8.32;5.40;;;;;;;;;;5095326;28;20468;-45
2021/08/19 03:41:26;;;;;;;6.60;5.43;;;;;;;;;;5113730;28;20016;-44
2021/08/19 03:43:52;;;;;;;6.10;4.97;;;;;;;;;;5095383;28;20038;-44
2021/08/19 03:46:18;;;;;;;7.55;5.15;;;;;;;;;;5113631;28;20024;-44
2021/08/19 03:48:44;;;;;;;8.45;6.43;;;;;;;;;;5114027;28;20045;-44
2021/08/19 03:51:11;;;;;;;8.73;6.55;;;;;;;;;;5114551;28;20024;-44
2021/08/19 03:53:37;;;;;;;8.10;6.60;;;;;;;;;;5113044;28;20047;-46
2021/08/19 03:56:04;;;;;;;8.07;6.53;;;;;;;;;;5107159;28;20019;-45
2021/08/19 03:58:30;;;;;;;7.30;6.28;;;;;;;;;;5111073;28;20015;-43
2021/08/19 04:00:56;;;;;;;8.25;6.75;;;;;;;;;;5113376;28;20166;-45
2021/08/19 04:03:22;;;;;;;7.68;6.80;;;;;;;;;;5112808;28;20737;-44
2021/08/19 04:05:48;;;;;;;6.90;6.05;;;;;;;;;;5112619;28;20035;-45
2021/08/19 04:08:14;;;;;;;7.97;6.13;;;;;;;;;;5112682;28;20479;-44
2021/08/19 04:10:40;;;;;;;6.45;5.88;;;;;;;;;;5113145;28;20072;-44
2021/08/19 04:13:06;;;;;;;7.55;5.97;;;;;;;;;;5096095;28;20024;-44
2021/08/19 04:15:32;;;;;;;6.60;6.00;;;;;;;;;;5095751;28;20096;-45
2021/08/19 04:17:58;;;;;;;6.43;5.80;;;;;;;;;;5114278;28;20062;-43
2021/08/19 04:20:24;;;;;;;9.30;6.32;;;;;;;;;;5114149;28;20020;-44
2021/08/19 04:22:50;;;;;;;7.25;6.15;;;;;;;;;;5113216;28;20435;-44
2021/08/19 04:25:17;;;;;;;8.02;6.25;;;;;;;;;;5113989;28;20529;-44
2021/08/19 04:27:43;;;;;;;8.68;6.68;;;;;;;;;;5114107;28;20118;-44
2021/08/19 04:30:09;;;;;;;6.88;6.20;;;;;;;;;;5095698;28;20016;-46
2021/08/19 04:32:36;;;;;;;10.57;6.78;;;;;;;;;;5113880;28;20051;-44
2021/08/19 04:35:03;;;;;;;7.32;6.25;;;;;;;;;;5113554;28;20031;-44
2021/08/19 04:37:29;;;;;;;7.18;6.47;;;;;;;;;;5113517;28;20042;-44
2021/08/19 04:39:55;;;;;;;10.02;7.00;;;;;;;;;;5113855;28;20031;-44
2021/08/19 04:42:21;;;;;;;8.15;7.00;;;;;;;;;;5113851;28;20019;-46
2021/08/19 04:44:47;;;;;;;8.20;7.10;;;;;;;;;;5113761;28;20046;-45
2021/08/19 04:47:13;;;;;;;6.97;6.28;;;;;;;;;;5113735;28;20377;-44
2021/08/19 04:49:39;;;;;;;7.03;6.20;;;;;;;;;;5113607;28;20026;-47
2021/08/19 04:52:05;;;;;;;7.10;6.40;;;;;;;;;;5113718;28;20023;-44
2021/08/19 04:54:31;;;;;;;8.35;5.80;;;;;;;;;;5113837;28;20020;-44
2021/08/19 04:56:57;;;;;;;7.15;5.45;;;;;;;;;;5113480;28;20054;-44
2021/08/19 04:59:23;;;;;;;6.50;5.90;;;;;;;;;;5113520;28;20081;-45
2021/08/19 05:01:49;;;;;;;6.32;5.72;;;;;;;;;;5113665;28;20028;-45
2021/08/19 05:04:15;;;;;;;7.57;6.10;;;;;;;;;;5113793;28;20024;-43
2021/08/19 05:06:41;;;;;;;6.18;5.43;;;;;;;;;;5113548;28;20020;-48
2021/08/19 05:09:08;;;;;;;6.03;5.38;;;;;;;;;;5113280;28;20031;-44
2021/08/19 05:11:34;;;;;;;6.68;5.80;;;;;;;;;;5113367;28;20023;-44
2021/08/19 05:14:00;;;;;;;6.75;5.70;;;;;;;;;;5113000;28;20099;-44
2021/08/19 05:16:27;;;;;;;5.93;5.32;;;;;;;;;;5112954;28;20428;-44
2021/08/19 05:18:53;;;;;;;6.90;5.40;;;;;;;;;;5094869;28;20055;-44
2021/08/19 05:21:19;;;;;;;5.75;5.18;;;;;;;;;;5094537;28;20023;-44
2021/08/19 05:23:45;;;;;;;5.95;5.35;;;;;;;;;;5112962;28;20036;-45
2021/08/19 05:26:11;;;;;;;5.72;5.22;;;;;;;;;;5112971;28;20027;-43
2021/08/19 05:28:37;;;;;;;5.97;5.38;;;;;;;;;;5112862;28;20483;-44
2021/08/19 05:31:03;;;;;;;6.00;5.47;;;;;;;;;;5112742;28;20043;-44
2021/08/19 05:33:29;;;;;;;5.88;5.28;;;;;;;;;;5094358;28;20068;-44
2021/08/19 05:35:56;;;;;;;5.35;4.85;;;;;;;;;;5112761;28;20422;-45
2021/08/19 05:38:22;;;;;;;6.97;5.57;;;;;;;;;;5112814;28;20464;-44
2021/08/19 05:40:48;;;;;;;5.93;5.20;;;;;;;;;;5112701;28;20034;-43
2021/08/19 05:43:14;;;;;;;6.05;5.45;;;;;;;;;;5112660;28;20388;-45
2021/08/19 05:45:42;;;;;;;8.00;5.75;;;;;;;;;;5113064;28;20476;-44
2021/08/19 05:48:09;;;;;;;5.43;4.93;;;;;;;;;;5112523;28;20102;-44
2021/08/19 05:50:35;;;;;;;5.22;4.82;;;;;;;;;;5112502;28;20102;-45
2021/08/19 05:53:01;;;;;;;5.90;5.38;;;;;;;;;;5112456;28;20024;-43
2021/08/19 05:55:27;;;;;;;5.28;4.78;;;;;;;;;;5112496;28;20076;-44
2021/08/19 05:57:53;;;;;;;6.55;5.07;;;;;;;;;;5112333;28;20077;-43
2021/08/19 06:00:21;;;;;;;5.60;5.05;;;;;;;;;;5112425;28;20016;-42
2021/08/19 06:02:47;;;;;;;5.30;4.80;;;;;;;;;;5112410;28;20020;-43
2021/08/19 06:05:13;;;;;;;6.00;5.05;;;;;;;;;;5112595;28;20410;-45
2021/08/19 06:07:40;;;;;;;5.68;5.13;;;;;;;;;;5112511;28;20020;-44
2021/08/19 06:10:06;;;;;;;5.30;4.80;;;;;;;;;;5112353;28;20387;-44
2021/08/19 06:12:32;;;;;;;6.18;5.07;;;;;;;;;;5112342;28;20046;-47
2021/08/19 06:14:58;;;;;;;5.90;5.30;;;;;;;;;;5094021;28;20035;-44
2021/08/19 06:17:24;;;;;;;5.32;4.82;;;;;;;;;;5112192;28;20024;-44
2021/08/19 06:19:50;;;;;;;7.93;5.97;;;;;;;;;;5112147;28;20027;-46
2021/08/19 06:22:16;;;;;;;4.93;4.45;;;;;;;;;;5112082;28;20049;-46
2021/08/19 06:24:42;;;;;;;7.15;5.78;;;;;;;;;;5111721;28;20048;-46
2021/08/19 06:27:09;;;;;;;6.70;5.07;;;;;;;;;;5093621;28;20071;-44
2021/08/19 06:29:36;;;;;;;6.15;5.03;;;;;;;;;;5111922;28;20464;-44
2021/08/19 06:32:02;;;;;;;5.35;4.45;;;;;;;;;;5111972;28;20024;-44
2021/08/19 06:34:28;;;;;;;6.18;5.35;;;;;;;;;;5093406;28;20024;-45
2021/08/19 06:36:54;;;;;;;6.10;5.50;;;;;;;;;;5093351;28;20030;-45
2021/08/19 06:39:21;;;;;;;8.32;5.85;;;;;;;;;;5111776;28;20019;-45
2021/08/19 06:41:47;;;;;;;7.10;5.70;;;;;;;;;;5111717;28;20031;-43
2021/08/19 06:44:13;;;;;;;6.45;5.85;;;;;;;;;;5111566;28;20396;-44
2021/08/19 06:46:39;;;;;;;6.18;5.30;;;;;;;;;;5111809;28;20373;-45
2021/08/19 06:49:05;;;;;;;7.05;4.88;;;;;;;;;;5111626;28;20031;-44
2021/08/19 06:51:31;;;;;;;7.88;5.72;;;;;;;;;;5093195;28;20110;-45
2021/08/19 06:53:58;;;;;;;6.22;5.38;;;;;;;;;;5093602;28;20019;-45
2021/08/19 06:56:24;;;;;;;7.30;5.47;;;;;;;;;;5111562;28;20058;-44
2021/08/19 06:58:50;;;;;;;6.90;5.60;;;;;;;;;;5112593;28;20023;-44
2021/08/19 07:01:16;;;;;;;6.20;5.35;;;;;;;;;;5116054;28;20494;-44
2021/08/19 07:03:42;;;;;;;5.90;5.15;;;;;;;;;;5115832;28;20099;-44
2021/08/19 07:06:12;;;;;;;7.88;5.97;;;;;;;;;;5115843;28;20554;-44
2021/08/19 07:08:38;;;;;;;5.65;5.05;;;;;;;;;;5115913;28;20024;-44
2021/08/19 07:11:04;;;;;;;5.50;4.95;;;;;;;;;;5115883;28;20024;-46
2021/08/19 07:13:30;;;;;;;9.95;5.43;;;;;;;;;;5115628;28;20024;-45
2021/08/19 07:15:56;;;;;;;6.38;5.30;;;;;;;;;;5096908;28;20069;-44
2021/08/19 07:18:22;;;;;;;7.20;5.22;;;;;;;;;;5115409;28;20020;-44
2021/08/19 07:20:48;;;;;;;8.63;5.90;;;;;;;;;;5115517;28;20426;-44
2021/08/19 07:23:15;;;;;;;10.35;6.03;;;;;;;;;;5097045;28;20077;-45
2021/08/19 07:25:41;;;;;;;7.75;6.20;;;;;;;;;;5115372;28;20138;-45
2021/08/19 07:28:07;;;;;;;8.55;5.47;;;;;;;;;;5115526;28;20344;-44
2021/08/19 07:30:33;;;;;;;7.88;5.57;;;;;;;;;;5115705;28;20020;-45
2021/08/19 07:32:59;;;;;;;7.45;5.10;;;;;;;;;;5115192;28;20028;-45
2021/08/19 07:35:26;;;;;;;7.68;5.68;;;;;;;;;;5115103;28;20383;-45
2021/08/19 07:37:54;;;;;;;8.05;5.72;;;;;;;;;;5096850;28;20067;-44
2021/08/19 07:40:22;;;;;;;5.25;4.80;;;;;;;;;;5114903;28;20061;-45
2021/08/19 07:42:50;;;;;;;8.02;5.80;;;;;;;;;;5115489;28;20094;-47
2021/08/19 07:45:16;;;;;;;6.88;5.05;;;;;;;;;;5115198;28;20019;-45
2021/08/19 07:47:42;;;;;;;7.93;5.57;;;;;;;;;;5114884;28;20099;-45
2021/08/19 07:50:09;;;;;;;6.30;4.85;;;;;;;;;;5114970;28;20028;-44
2021/08/19 07:52:36;;;;;;;6.70;5.13;;;;;;;;;;5115260;28;20023;-45
2021/08/19 07:55:02;;;;;;;7.20;5.40;;;;;;;;;;5115103;28;20027;-44
2021/08/19 07:57:28;;;;;;;5.57;4.95;;;;;;;;;;5114610;28;20015;-44
2021/08/19 07:59:54;;;;;;;7.50;5.22;;;;;;;;;;5114533;28;20015;-44
2021/08/19 08:02:20;;;;;;;5.75;4.65;;;;;;;;;;5114485;28;20030;-44
2021/08/19 08:04:46;;;;;;;6.03;5.10;;;;;;;;;;5114434;28;20055;-44
2021/08/19 08:07:12;;;;;;;4.90;4.15;;;;;;;;;;5114425;28;20055;-44
2021/08/19 08:09:38;;;;;;;6.20;5.13;;;;;;;;;;5096067;28;20440;-44
2021/08/19 08:12:04;;;;;;;6.32;4.75;;;;;;;;;;5113491;28;20039;-45
2021/08/19 08:14:30;;;;;;;5.47;4.90;;;;;;;;;;5114230;28;20035;-46
2021/08/19 08:16:56;;;;;;;5.43;4.20;;;;;;;;;;5114088;28;20028;-45
2021/08/19 08:19:22;;;;;;;6.55;5.00;;;;;;;;;;5114300;28;20387;-45
2021/08/19 08:21:50;;;;;;;4.50;4.10;;;;;;;;;;5095549;28;20119;-44
2021/08/19 08:24:16;;;;;;;5.53;4.75;;;;;;;;;;5114096;28;20118;-44
2021/08/19 08:26:42;;;;;;;5.57;4.57;;;;;;;;;;5114298;28;20457;-45
2021/08/19 08:29:08;;;;;;;4.88;4.38;;;;;;;;;;5114096;28;20030;-45
2021/08/19 08:31:34;;;;;;;4.88;4.43;;;;;;;;;;5114223;28;20077;-44
2021/08/19 08:34:00;;;;;;;6.22;4.93;;;;;;;;;;5114044;28;20106;-44
2021/08/19 08:36:26;;;;;;;6.30;4.65;;;;;;;;;;5113876;28;20472;-44
2021/08/19 08:38:52;;;;;;;7.57;4.53;;;;;;;;;;5114016;28;20479;-42
2021/08/19 08:41:22;;;;;;;6.53;3.97;;;;;;;;;;5113992;28;20024;-45
2021/08/19 08:43:48;;;;;;;4.78;4.28;;;;;;;;;;5114105;28;20023;-45
2021/08/19 08:46:17;;;;;;;4.55;4.15;;;;;;;;;;5113888;28;20072;-44
2021/08/19 08:48:44;;;;;;;6.80;4.00;;;;;;;;;;5113846;28;20031;-44
2021/08/19 08:51:10;;;;;;;5.32;4.50;;;;;;;;;;5113723;28;20020;-44
2021/08/19 08:53:36;;;;;;;6.05;5.30;;;;;;;;;;5113614;28;20023;-45
2021/08/19 08:56:02;;;;;;;5.00;4.18;;;;;;;;;;5113557;28;20509;-46
2021/08/19 08:58:28;;;;;;;5.60;4.60;;;;;;;;;;5113589;28;20019;-44
2021/08/19 09:00:54;;;;;;;4.10;3.60;;;;;;;;;;5113662;28;20437;-44
2021/08/19 09:03:21;;;;;;;4.88;4.40;;;;;;;;;;5095225;28;20114;-43
2021/08/19 09:05:48;;;;;;;7.85;4.78;;;;;;;;;;5113595;28;20054;-45
2021/08/19 09:08:16;;;;;;;4.85;4.35;;;;;;;;;;5113379;28;20475;-45
2021/08/19 09:10:43;;;;;;;6.47;4.32;;;;;;;;;;5113405;28;20186;-44
2021/08/19 09:13:13;;;;;;;4.47;3.90;;;;;;;;;;5113216;28;20020;-44
2021/08/19 09:15:39;;;;;;;4.10;3.70;;;;;;;;;;5113560;28;20055;-44
2021/08/19 09:18:05;;;;;;;4.30;3.75;;;;;;;;;;5113074;28;20027;-45
2021/08/19 09:20:32;;;;;;;4.78;3.97;;;;;;;;;;5113409;28;20015;-45
2021/08/19 09:23:03;;;;;;;3.85;3.33;;;;;;;;;;5112771;28;20040;-45
2021/08/19 09:25:29;;;;;;;6.72;4.78;;;;;;;;;;5113107;28;20055;-45
2021/08/19 09:28:10;;;;;;;4.68;3.53;;;;;;;;;;5113058;28;20031;-44
2021/08/19 09:30:37;;;;;;;5.85;4.60;;;;;;;;;;5112938;28;20090;-48
2021/08/19 09:33:04;;;;;;;4.97;4.30;;;;;;;;;;5113429;28;20023;-45
2021/08/19 09:35:33;;;;;;;6.63;4.40;;;;;;;;;;5112988;28;20074;-45
2021/08/19 09:38:06;;;;;;;4.53;4.07;;;;;;;;;;5113057;28;20047;-45
2021/08/19 09:40:33;;;;;;;5.32;4.65;;;;;;;;;;5112743;28;20024;-45
2021/08/19 09:42:59;;;;;;;5.72;4.07;;;;;;;;;;5112660;28;20027;-46
2021/08/19 09:45:25;;;;;;;6.03;4.50;;;;;;;;;;5112885;28;20100;-45
2021/08/19 09:47:52;;;;;;;4.45;3.97;;;;;;;;;;5112633;28;20049;-44
2021/08/19 09:50:21;;;;;;;5.63;4.72;;;;;;;;;;5112648;28;20024;-46
2021/08/19 09:52:49;;;;;;;5.07;4.10;;;;;;;;;;5112549;28;20149;-44
2021/08/19 09:55:26;;;;;;;4.18;3.78;;;;;;;;;;5094142;28;20464;-44
2021/08/19 09:57:52;;;;;;;6.28;4.43;;;;;;;;;;5112409;28;20026;-45
2021/08/19 10:00:41;;;;;;;6.00;4.85;;;;;;;;;;5112462;28;20076;-44
2021/08/19 10:03:08;;;;;;;5.82;4.60;;;;;;;;;;5112313;28;20027;-44
2021/08/19 10:05:35;;;;;;;5.22;4.78;;;;;;;;;;5112348;28;20073;-46
2021/08/19 10:08:01;;;;;;;6.03;5.25;;;;;;;;;;5112183;28;20055;-44
2021/08/19 10:10:28;;;;;;;4.38;3.97;;;;;;;;;;5112026;28;20023;-46
2021/08/19 10:12:55;;;;;;;5.55;4.90;;;;;;;;;;5112121;28;20074;-45
2021/08/19 10:15:22;;;;;;;8.88;5.95;;;;;;;;;;5112020;28;20521;-44
2021/08/19 10:17:49;;;;;;;7.18;5.22;;;;;;;;;;5112060;28;20387;-45
2021/08/19 10:20:23;;;;;;;5.97;4.93;;;;;;;;;;5112101;28;20460;-46
2021/08/19 10:22:50;;;;;;;5.85;4.43;;;;;;;;;;5111736;28;20122;-44
2021/08/19 10:25:18;;;;;;;6.57;5.43;;;;;;;;;;5112164;28;20038;-45
2021/08/19 10:27:44;;;;;;;6.10;4.65;;;;;;;;;;5112028;28;20487;-45
2021/08/19 10:30:19;;;;;;;5.85;4.40;;;;;;;;;;5111969;28;20091;-45
2021/08/19 10:32:51;;;;;;;5.38;4.88;;;;;;;;;;5111959;28;20391;-43
2021/08/19 10:35:25;;;;;;;6.10;4.88;;;;;;;;;;5111309;28;20441;-45
2021/08/19 10:37:51;;;;;;;;;;;;;;;;;;5112370;28;20492;-44
2021/08/19 10:40:37;;;;;;;5.50;5.00;;;;;;;;;;5111993;28;19966;-44
2021/08/19 10:43:37;;;;;;;5.85;4.72;;;;;;;;;;5111856;28;20046;-44
2021/08/19 10:46:11;;;;;;;6.68;5.70;;;;;;;;;;5057400;28;20447;-44
2021/08/19 10:48:50;;;;;;;6.50;4.70;;;;;;;;;;5112035;28;20023;-46
2021/08/19 10:51:16;;;;;;;6.65;5.18;;;;;;;;;;5111766;28;20081;-45
2021/08/19 10:53:43;;;;;;;6.05;5.47;;;;;;;;;;5111747;28;20100;-45
2021/08/19 10:56:09;;;;;;;7.93;5.97;;;;;;;;;;5111533;28;20028;-46
2021/08/19 10:58:36;;;;;;;6.22;5.40;;;;;;;;;;5111687;28;20463;-45
2021/08/19 11:01:22;;;;;;;6.07;4.80;;;;;;;;;;5111667;28;20024;-43
2021/08/19 11:03:49;;;;;;;6.95;5.85;;;;;;;;;;5111451;28;20027;-45
2021/08/19 11:06:19;;;;;;;6.25;4.82;;;;;;;;;;5111561;28;20050;-45
2021/08/19 11:08:47;;;;;;;5.70;5.10;;;;;;;;;;5111426;28;20032;-45
2021/08/19 11:11:14;;;;;;;5.05;4.47;;;;;;;;;;5111526;28;20631;-44
2021/08/19 11:13:41;;;;;;;5.78;4.88;;;;;;;;;;5111611;28;20032;-47
2021/08/19 11:16:08;;;;;;;6.88;5.03;;;;;;;;;;5111449;28;20081;-43
2021/08/19 11:18:36;;;;;;;6.10;5.10;;;;;;;;;;5111582;28;20491;-44
2021/08/19 11:21:03;;;;;;;5.07;4.55;;;;;;;;;;5111455;28;20499;-46
2021/08/19 11:23:30;;;;;;;6.10;4.80;;;;;;;;;;5111557;28;20043;-45
2021/08/19 11:26:04;;;;;;;5.75;5.00;;;;;;;;;;5093173;28;20027;-44
2021/08/19 11:28:34;;;;;;;4.50;4.10;;;;;;;;;;5111458;28;20032;-45
2021/08/19 11:31:00;;;;;;;6.72;5.45;;;;;;;;;;5111739;28;20789;-45
2021/08/19 11:33:27;;;;;;;5.97;4.13;;;;;;;;;;5111334;28;20064;-44
2021/08/19 11:36:02;;;;;;;6.47;4.97;;;;;;;;;;5111211;28;20019;-46
2021/08/19 11:38:28;;;;;;;9.10;4.18;;;;;;;;;;5111135;28;20476;-46
2021/08/19 11:40:57;;;;;;;5.15;4.60;;;;;;;;;;5111215;28;20425;-44
2021/08/19 11:43:26;;;;;;;5.50;4.85;;;;;;;;;;5111223;28;20019;-45
2021/08/19 11:46:04;;;;;;;5.60;4.55;;;;;;;;;;5113505;28;20020;-43
2021/08/19 11:48:30;;;;;;;5.13;4.57;;;;;;;;;;5115335;28;20038;-45
2021/08/19 11:50:58;;;;;;;5.50;4.82;;;;;;;;;;5096644;28;20027;-45
2021/08/19 11:53:24;;;;;;;6.22;5.32;;;;;;;;;;5115058;28;20377;-45
2021/08/19 11:55:52;;;;;;;5.63;5.07;;;;;;;;;;5114815;28;20468;-44
2021/08/19 11:58:22;;;;;;;6.13;5.13;;;;;;;;;;5114922;28;20015;-44
2021/08/19 12:01:05;;;;;;;5.18;4.60;;;;;;;;;;5114783;28;20043;-44
2021/08/19 12:03:35;;;;;;;7.03;4.53;;;;;;;;;;5114824;28;20031;-44
2021/08/19 12:06:02;;;;;;;5.95;4.78;;;;;;;;;;5115005;28;20024;-44
2021/08/19 12:08:28;;;;;;;7.18;4.30;;;;;;;;;;5114830;28;20124;-44
2021/08/19 12:10:56;;;;;;;5.00;4.60;;;;;;;;;;5114746;28;20023;-43
2021/08/19 12:13:23;;;;;;;5.20;4.70;;;;;;;;;;5114739;28;20028;-44
2021/08/19 12:15:49;;;;;;;5.07;4.40;;;;;;;;;;5114696;28;20830;-45
2021/08/19 12:18:20;;;;;;;4.90;4.38;;;;;;;;;;5114548;28;20094;-46
2021/08/19 12:20:46;;;;;;;4.85;4.45;;;;;;;;;;5114756;28;20019;-44
2021/08/19 12:23:22;;;;;;;4.68;4.28;;;;;;;;;;5114322;28;20419;-44
2021/08/19 12:25:49;;;;;;;4.65;4.25;;;;;;;;;;5114167;28;20173;-45
2021/08/19 12:28:16;;;;;;;4.88;3.80;;;;;;;;;;5114263;28;20027;-44
2021/08/19 12:30:55;;;;;;;4.95;3.53;;;;;;;;;;5114275;28;20015;-44
2021/08/19 12:33:35;;;;;;;5.68;4.25;;;;;;;;;;5114146;28;20506;-45
2021/08/19 12:36:18;;;;;;;3.78;3.40;;;;;;;;;;5113931;28;20034;-45
2021/08/19 12:38:46;;;;;;;4.78;3.95;;;;;;;;;;5113988;28;20417;-44
2021/08/19 12:41:23;;;;;;;4.53;3.80;;;;;;;;;;5114113;28;20387;-47
2021/08/19 12:44:05;;;;;;;6.35;3.63;;;;;;;;;;5114247;28;20333;-44
2021/08/19 12:46:38;;;;;;;4.50;3.80;;;;;;;;;;5113804;28;20019;-45
2021/08/19 12:49:22;;;;;;;4.45;3.60;;;;;;;;;;5095856;28;20032;-47
2021/08/19 12:51:48;;;;;;;4.72;3.20;;;;;;;;;;5114145;28;20024;-46
2021/08/19 12:54:20;;;;;;;4.57;3.65;;;;;;;;;;5113782;28;20100;-45
2021/08/19 12:56:58;;;;;;;3.97;3.65;;;;;;;;;;5113219;28;20075;-45
2021/08/19 12:59:24;;;;;;;5.30;3.30;;;;;;;;;;5113628;28;20027;-45
2021/08/19 13:01:50;;;;;;;4.25;3.17;;;;;;;;;;5113586;28;20026;-51
2021/08/19 13:04:16;;;;;;;6.15;3.60;;;;;;;;;;5113439;28;20027;-45
2021/08/19 13:06:42;;;;;;;4.97;3.80;;;;;;;;;;5113537;28;20023;-48
2021/08/19 13:09:08;;;;;;;4.00;3.70;;;;;;;;;;5113409;28;20022;-45
2021/08/19 13:11:34;;;;;;;3.63;3.22;;;;;;;;;;5113334;28;20030;-44
2021/08/19 13:14:00;;;;;;;3.55;3.25;;;;;;;;;;5113257;28;20460;-45
2021/08/19 13:16:26;;;;;;;4.32;3.88;;;;;;;;;;5113204;28;20034;-44
2021/08/19 13:18:52;;;;;;;3.95;3.53;;;;;;;;;;5113204;28;20027;-48
2021/08/19 13:21:18;;;;;;;3.47;3.17;;;;;;;;;;5113175;28;20069;-47
2021/08/19 13:23:44;;;;;;;4.88;3.65;;;;;;;;;;5112967;28;20047;-44
2021/08/19 13:26:10;;;;;;;3.85;3.45;;;;;;;;;;5113264;28;20513;-45
2021/08/19 13:28:36;;;;;;;6.43;3.72;;;;;;;;;;5113144;28;20031;-45
2021/08/19 13:31:02;;;;;;;4.10;3.67;;;;;;;;;;5112979;28;20077;-43
2021/08/19 13:33:28;;;;;;;4.88;3.60;;;;;;;;;;5112824;28;20444;-46
2021/08/19 13:35:55;;;;;;;4.57;3.30;;;;;;;;;;5112833;28;20065;-45
2021/08/19 13:38:21;;;;;;;3.75;3.38;;;;;;;;;;5112833;28;20026;-44
2021/08/19 13:40:47;;;;;;;3.15;2.95;;;;;;;;;;5112747;28;20028;-45
2021/08/19 13:43:13;;;;;;;3.97;3.03;;;;;;;;;;5112886;28;20031;-45
2021/08/19 13:45:39;;;;;;;3.70;3.22;;;;;;;;;;5112621;28;20107;-43
2021/08/19 13:48:06;;;;;;;3.42;3.13;;;;;;;;;;5112644;28;20034;-43
2021/08/19 13:50:32;;;;;;;3.47;3.13;;;;;;;;;;5112560;28;20031;-44
2021/08/19 13:52:58;;;;;;;3.25;2.90;;;;;;;;;;5112474;28;20391;-47
2021/08/19 13:55:24;;;;;;;3.38;3.05;;;;;;;;;;5112289;28;20035;-44
2021/08/19 13:57:51;;;;;;;4.22;2.90;;;;;;;;;;5112547;28;20422;-44
2021/08/19 14:00:17;;;;;;;3.00;2.80;;;;;;;;;;5112497;28;20103;-44
2021/08/19 14:02:43;;;;;;;2.60;2.40;;;;;;;;;;5112327;28;20027;-46
2021/08/19 14:05:09;;;;;;;3.85;2.50;;;;;;;;;;5112426;28;20107;-45
2021/08/19 14:07:36;;;;;;;3.05;2.80;;;;;;;;;;5111848;28;20032;-44
2021/08/19 14:10:02;;;;;;;4.15;2.60;;;;;;;;;;5111453;28;20156;-45
2021/08/19 14:12:28;;;;;;;2.95;2.67;;;;;;;;;;5112200;28;20027;-44
2021/08/19 14:14:54;;;;;;;3.28;2.50;;;;;;;;;;5093832;28;20028;-45
2021/08/19 14:17:20;;;;;;;2.80;2.60;;;;;;;;;;5111914;28;20026;-46
2021/08/19 14:19:46;;;;;;;3.60;3.00;;;;;;;;;;5112151;28;20019;-47
2021/08/19 14:22:12;;;;;;;3.40;2.65;;;;;;;;;;5112106;28;20451;-47
2021/08/19 14:24:38;;;;;;;2.75;2.55;;;;;;;;;;5112092;28;20058;-44
2021/08/19 14:27:05;;;;;;;4.85;2.75;;;;;;;;;;5112393;28;20036;-47
2021/08/19 14:29:31;;;;;;;3.13;2.72;;;;;;;;;;5112175;28;20031;-45
2021/08/19 14:31:57;;;;;;;3.30;3.00;;;;;;;;;;5112122;28;20020;-46
2021/08/19 14:34:23;;;;;;;5.40;2.88;;;;;;;;;;5111854;28;20502;-47
2021/08/19 14:36:49;;;;;;;4.22;3.67;;;;;;;;;;5111649;28;20027;-46
2021/08/19 14:39:18;;;;;;;4.45;3.65;;;;;;;;;;5111749;28;20031;-44
2021/08/19 14:41:44;;;;;;;4.43;3.08;;;;;;;;;;5111690;28;20027;-47
2021/08/19 14:44:10;;;;;;;4.05;3.65;;;;;;;;;;5111811;28;20051;-44